sensor_id;sensor_type;location;lat;lon;timestamp;P1;durP1;ratioP1;P2;durP2;ratioP2
21890;SDS011;11110;52.386;16.940;2023-02-28T00:01:35;31.03;;;12.13;;
21890;SDS011;11110;52.386;16.940;2023-02-28T00:04:04;42.80;;;13.67;;
21890;SDS011;11110;52.386;16.940;2023-02-28T00:06:35;39.53;;;13.73;;
21890;SDS011;11110;52.386;16.940;2023-02-28T00:09:05;27.40;;;12.90;;
21890;SDS011;11110;52.386;16.940;2023-02-28T00:11:34;33.77;;;12.60;;
21890;SDS011;11110;52.386;16.940;2023-02-28T00:14:04;31.20;;;12.50;;
21890;SDS011;11110;52.386;16.940;2023-02-28T00:16:33;23.50;;;11.77;;
21890;SDS011;11110;52.386;16.940;2023-02-28T00:19:02;35.43;;;12.37;;
21890;SDS011;11110;52.386;16.940;2023-02-28T00:21:30;31.17;;;12.97;;
21890;SDS011;11110;52.386;16.940;2023-02-28T00:23:59;26.47;;;11.17;;
21890;SDS011;11110;52.386;16.940;2023-02-28T00:26:29;32.60;;;11.77;;
21890;SDS011;11110;52.386;16.940;2023-02-28T00:28:58;32.80;;;12.77;;
21890;SDS011;11110;52.386;16.940;2023-02-28T00:31:27;30.57;;;12.93;;
21890;SDS011;11110;52.386;16.940;2023-02-28T00:33:56;28.40;;;13.20;;
21890;SDS011;11110;52.386;16.940;2023-02-28T00:36:25;33.13;;;14.80;;
21890;SDS011;11110;52.386;16.940;2023-02-28T00:38:54;31.30;;;14.30;;
21890;SDS011;11110;52.386;16.940;2023-02-28T00:41:23;29.30;;;13.70;;
21890;SDS011;11110;52.386;16.940;2023-02-28T00:43:53;28.27;;;13.00;;
21890;SDS011;11110;52.386;16.940;2023-02-28T00:46:21;32.63;;;14.80;;
21890;SDS011;11110;52.386;16.940;2023-02-28T00:48:50;30.73;;;14.33;;
21890;SDS011;11110;52.386;16.940;2023-02-28T00:51:19;33.17;;;14.80;;
21890;SDS011;11110;52.386;16.940;2023-02-28T00:53:47;37.27;;;14.30;;
21890;SDS011;11110;52.386;16.940;2023-02-28T00:56:16;29.97;;;15.37;;
21890;SDS011;11110;52.386;16.940;2023-02-28T00:58:46;27.53;;;13.90;;
21890;SDS011;11110;52.386;16.940;2023-02-28T01:01:16;32.20;;;13.50;;
21890;SDS011;11110;52.386;16.940;2023-02-28T01:03:45;37.87;;;15.20;;
21890;SDS011;11110;52.386;16.940;2023-02-28T01:06:13;30.53;;;13.23;;
21890;SDS011;11110;52.386;16.940;2023-02-28T01:08:42;24.83;;;14.50;;
21890;SDS011;11110;52.386;16.940;2023-02-28T01:11:12;31.70;;;15.10;;
21890;SDS011;11110;52.386;16.940;2023-02-28T01:13:43;30.80;;;14.27;;
21890;SDS011;11110;52.386;16.940;2023-02-28T01:16:12;28.20;;;13.77;;
21890;SDS011;11110;52.386;16.940;2023-02-28T01:18:43;31.50;;;14.00;;
21890;SDS011;11110;52.386;16.940;2023-02-28T01:21:14;25.93;;;12.10;;
21890;SDS011;11110;52.386;16.940;2023-02-28T01:23:44;30.20;;;13.87;;
21890;SDS011;11110;52.386;16.940;2023-02-28T01:26:17;37.43;;;15.67;;
21890;SDS011;11110;52.386;16.940;2023-02-28T01:28:48;32.33;;;14.40;;
21890;SDS011;11110;52.386;16.940;2023-02-28T01:31:18;25.33;;;13.23;;
21890;SDS011;11110;52.386;16.940;2023-02-28T01:33:50;26.20;;;13.00;;
21890;SDS011;11110;52.386;16.940;2023-02-28T01:36:19;32.93;;;13.33;;
21890;SDS011;11110;52.386;16.940;2023-02-28T01:38:50;33.07;;;15.00;;
21890;SDS011;11110;52.386;16.940;2023-02-28T01:41:20;34.33;;;14.37;;
21890;SDS011;11110;52.386;16.940;2023-02-28T01:44:00;33.40;;;14.70;;
21890;SDS011;11110;52.386;16.940;2023-02-28T01:46:32;30.73;;;15.00;;
21890;SDS011;11110;52.386;16.940;2023-02-28T01:49:06;26.73;;;14.13;;
21890;SDS011;11110;52.386;16.940;2023-02-28T01:51:38;34.63;;;14.33;;
21890;SDS011;11110;52.386;16.940;2023-02-28T01:54:15;31.70;;;14.73;;
21890;SDS011;11110;52.386;16.940;2023-02-28T01:56:47;32.83;;;14.07;;
21890;SDS011;11110;52.386;16.940;2023-02-28T01:59:20;30.87;;;14.17;;
21890;SDS011;11110;52.386;16.940;2023-02-28T02:01:53;28.93;;;14.33;;
21890;SDS011;11110;52.386;16.940;2023-02-28T02:04:24;35.50;;;14.30;;
21890;SDS011;11110;52.386;16.940;2023-02-28T02:07:00;32.07;;;14.40;;
21890;SDS011;11110;52.386;16.940;2023-02-28T02:09:29;26.93;;;12.93;;
21890;SDS011;11110;52.386;16.940;2023-02-28T02:11:58;34.43;;;14.13;;
21890;SDS011;11110;52.386;16.940;2023-02-28T02:14:40;33.03;;;13.13;;
21890;SDS011;11110;52.386;16.940;2023-02-28T02:17:20;31.20;;;14.33;;
21890;SDS011;11110;52.386;16.940;2023-02-28T02:25:55;32.13;;;13.27;;
21890;SDS011;11110;52.386;16.940;2023-02-28T02:31:46;37.13;;;14.10;;
21890;SDS011;11110;52.386;16.940;2023-02-28T02:37:32;24.30;;;11.70;;
21890;SDS011;11110;52.386;16.940;2023-02-28T02:40:09;32.43;;;13.07;;
21890;SDS011;11110;52.386;16.940;2023-02-28T02:42:44;27.23;;;13.47;;
21890;SDS011;11110;52.386;16.940;2023-02-28T02:45:21;34.20;;;13.47;;
21890;SDS011;11110;52.386;16.940;2023-02-28T02:47:54;36.33;;;13.77;;
21890;SDS011;11110;52.386;16.940;2023-02-28T02:50:31;32.37;;;13.43;;
21890;SDS011;11110;52.386;16.940;2023-02-28T02:53:05;32.87;;;14.57;;
21890;SDS011;11110;52.386;16.940;2023-02-28T02:55:37;28.07;;;12.87;;
21890;SDS011;11110;52.386;16.940;2023-02-28T02:58:10;31.53;;;13.73;;
21890;SDS011;11110;52.386;16.940;2023-02-28T03:00:42;30.20;;;13.10;;
21890;SDS011;11110;52.386;16.940;2023-02-28T03:03:15;32.27;;;14.30;;
21890;SDS011;11110;52.386;16.940;2023-02-28T03:05:49;27.83;;;13.23;;
21890;SDS011;11110;52.386;16.940;2023-02-28T03:08:18;43.47;;;16.13;;
21890;SDS011;11110;52.386;16.940;2023-02-28T03:10:48;30.70;;;13.40;;
21890;SDS011;11110;52.386;16.940;2023-02-28T03:13:26;42.50;;;14.77;;
21890;SDS011;11110;52.386;16.940;2023-02-28T03:16:27;45.47;;;16.20;;
21890;SDS011;11110;52.386;16.940;2023-02-28T03:19:03;36.90;;;14.97;;
21890;SDS011;11110;52.386;16.940;2023-02-28T03:21:52;41.53;;;15.10;;
21890;SDS011;11110;52.386;16.940;2023-02-28T03:24:32;36.73;;;13.93;;
21890;SDS011;11110;52.386;16.940;2023-02-28T03:27:06;40.57;;;15.07;;
21890;SDS011;11110;52.386;16.940;2023-02-28T03:29:40;41.70;;;15.43;;
21890;SDS011;11110;52.386;16.940;2023-02-28T03:32:14;39.37;;;14.80;;
21890;SDS011;11110;52.386;16.940;2023-02-28T03:34:50;36.80;;;14.37;;
21890;SDS011;11110;52.386;16.940;2023-02-28T03:37:28;40.83;;;15.67;;
21890;SDS011;11110;52.386;16.940;2023-02-28T03:40:02;37.60;;;15.47;;
21890;SDS011;11110;52.386;16.940;2023-02-28T03:42:35;37.70;;;14.10;;
21890;SDS011;11110;52.386;16.940;2023-02-28T03:45:08;35.30;;;14.80;;
21890;SDS011;11110;52.386;16.940;2023-02-28T03:47:41;36.90;;;14.70;;
21890;SDS011;11110;52.386;16.940;2023-02-28T03:50:16;40.60;;;14.97;;
21890;SDS011;11110;52.386;16.940;2023-02-28T03:52:51;40.17;;;15.53;;
21890;SDS011;11110;52.386;16.940;2023-02-28T03:55:28;41.93;;;15.70;;
21890;SDS011;11110;52.386;16.940;2023-02-28T03:58:04;37.77;;;13.97;;
21890;SDS011;11110;52.386;16.940;2023-02-28T04:00:39;34.43;;;14.57;;
21890;SDS011;11110;52.386;16.940;2023-02-28T04:03:13;37.33;;;14.63;;
21890;SDS011;11110;52.386;16.940;2023-02-28T04:05:50;33.50;;;14.73;;
21890;SDS011;11110;52.386;16.940;2023-02-28T04:08:21;34.37;;;14.43;;
21890;SDS011;11110;52.386;16.940;2023-02-28T04:10:53;34.93;;;14.37;;
21890;SDS011;11110;52.386;16.940;2023-02-28T04:13:28;31.00;;;15.07;;
21890;SDS011;11110;52.386;16.940;2023-02-28T04:15:57;30.40;;;14.87;;
21890;SDS011;11110;52.386;16.940;2023-02-28T04:18:25;38.17;;;15.67;;
21890;SDS011;11110;52.386;16.940;2023-02-28T04:20:54;29.67;;;13.90;;
21890;SDS011;11110;52.386;16.940;2023-02-28T04:23:24;39.90;;;16.43;;
21890;SDS011;11110;52.386;16.940;2023-02-28T04:25:54;32.00;;;14.33;;
21890;SDS011;11110;52.386;16.940;2023-02-28T04:28:23;34.90;;;14.40;;
21890;SDS011;11110;52.386;16.940;2023-02-28T04:30:55;42.97;;;16.10;;
21890;SDS011;11110;52.386;16.940;2023-02-28T04:33:24;40.33;;;15.33;;
21890;SDS011;11110;52.386;16.940;2023-02-28T04:36:00;30.20;;;14.27;;
21890;SDS011;11110;52.386;16.940;2023-02-28T04:38:32;41.23;;;15.10;;
21890;SDS011;11110;52.386;16.940;2023-02-28T04:41:02;29.10;;;13.30;;
21890;SDS011;11110;52.386;16.940;2023-02-28T04:43:31;33.57;;;14.23;;
21890;SDS011;11110;52.386;16.940;2023-02-28T04:46:01;48.43;;;15.70;;
21890;SDS011;11110;52.386;16.940;2023-02-28T04:48:32;38.23;;;15.20;;
21890;SDS011;11110;52.386;16.940;2023-02-28T04:51:02;42.37;;;14.43;;
21890;SDS011;11110;52.386;16.940;2023-02-28T04:53:34;43.03;;;15.50;;
21890;SDS011;11110;52.386;16.940;2023-02-28T04:56:04;32.87;;;13.97;;
21890;SDS011;11110;52.386;16.940;2023-02-28T04:58:33;34.53;;;16.17;;
21890;SDS011;11110;52.386;16.940;2023-02-28T05:01:03;34.90;;;14.80;;
21890;SDS011;11110;52.386;16.940;2023-02-28T05:03:39;34.97;;;15.33;;
21890;SDS011;11110;52.386;16.940;2023-02-28T05:06:08;41.80;;;15.80;;
21890;SDS011;11110;52.386;16.940;2023-02-28T05:08:39;40.00;;;15.03;;
21890;SDS011;11110;52.386;16.940;2023-02-28T05:11:12;33.33;;;14.13;;
21890;SDS011;11110;52.386;16.940;2023-02-28T05:13:43;34.53;;;14.97;;
21890;SDS011;11110;52.386;16.940;2023-02-28T05:16:12;39.33;;;14.43;;
21890;SDS011;11110;52.386;16.940;2023-02-28T05:18:41;37.83;;;14.43;;
21890;SDS011;11110;52.386;16.940;2023-02-28T05:21:22;40.70;;;15.93;;
21890;SDS011;11110;52.386;16.940;2023-02-28T05:23:55;33.70;;;14.13;;
21890;SDS011;11110;52.386;16.940;2023-02-28T05:26:25;46.93;;;16.20;;
21890;SDS011;11110;52.386;16.940;2023-02-28T05:28:54;32.73;;;13.20;;
21890;SDS011;11110;52.386;16.940;2023-02-28T05:31:23;38.23;;;13.67;;
21890;SDS011;11110;52.386;16.940;2023-02-28T05:33:52;40.33;;;15.37;;
21890;SDS011;11110;52.386;16.940;2023-02-28T05:36:21;32.20;;;14.03;;
21890;SDS011;11110;52.386;16.940;2023-02-28T05:38:50;33.47;;;13.77;;
21890;SDS011;11110;52.386;16.940;2023-02-28T05:41:20;29.80;;;14.60;;
21890;SDS011;11110;52.386;16.940;2023-02-28T05:43:48;38.93;;;14.07;;
21890;SDS011;11110;52.386;16.940;2023-02-28T05:46:17;34.77;;;14.00;;
21890;SDS011;11110;52.386;16.940;2023-02-28T05:48:46;29.77;;;13.90;;
21890;SDS011;11110;52.386;16.940;2023-02-28T05:51:16;29.93;;;13.97;;
21890;SDS011;11110;52.386;16.940;2023-02-28T05:53:45;39.17;;;15.00;;
21890;SDS011;11110;52.386;16.940;2023-02-28T05:56:15;33.47;;;13.97;;
21890;SDS011;11110;52.386;16.940;2023-02-28T05:58:45;41.93;;;13.97;;
21890;SDS011;11110;52.386;16.940;2023-02-28T06:01:20;36.77;;;14.77;;
21890;SDS011;11110;52.386;16.940;2023-02-28T06:03:51;32.83;;;14.17;;
21890;SDS011;11110;52.386;16.940;2023-02-28T06:06:20;42.37;;;14.77;;
21890;SDS011;11110;52.386;16.940;2023-02-28T06:08:48;43.67;;;15.30;;
21890;SDS011;11110;52.386;16.940;2023-02-28T06:11:17;44.67;;;15.87;;
21890;SDS011;11110;52.386;16.940;2023-02-28T06:13:48;37.70;;;14.80;;
21890;SDS011;11110;52.386;16.940;2023-02-28T06:16:17;42.33;;;16.07;;
21890;SDS011;11110;52.386;16.940;2023-02-28T06:18:45;58.00;;;17.37;;
21890;SDS011;11110;52.386;16.940;2023-02-28T06:21:14;39.97;;;15.03;;
21890;SDS011;11110;52.386;16.940;2023-02-28T06:23:42;38.20;;;14.50;;
21890;SDS011;11110;52.386;16.940;2023-02-28T06:26:11;41.27;;;15.37;;
21890;SDS011;11110;52.386;16.940;2023-02-28T06:28:40;38.80;;;14.80;;
21890;SDS011;11110;52.386;16.940;2023-02-28T06:31:10;37.50;;;15.67;;
21890;SDS011;11110;52.386;16.940;2023-02-28T06:33:40;38.77;;;14.87;;
21890;SDS011;11110;52.386;16.940;2023-02-28T06:36:11;31.30;;;14.33;;
21890;SDS011;11110;52.386;16.940;2023-02-28T06:38:41;38.20;;;13.67;;
21890;SDS011;11110;52.386;16.940;2023-02-28T06:41:10;39.73;;;15.57;;
21890;SDS011;11110;52.386;16.940;2023-02-28T06:43:40;22.50;;;12.23;;
21890;SDS011;11110;52.386;16.940;2023-02-28T06:46:12;31.13;;;13.53;;
21890;SDS011;11110;52.386;16.940;2023-02-28T06:48:42;39.87;;;14.10;;
21890;SDS011;11110;52.386;16.940;2023-02-28T06:51:12;34.63;;;13.87;;
21890;SDS011;11110;52.386;16.940;2023-02-28T06:53:42;39.63;;;15.13;;
21890;SDS011;11110;52.386;16.940;2023-02-28T06:56:12;42.50;;;15.33;;
21890;SDS011;11110;52.386;16.940;2023-02-28T06:58:45;28.43;;;13.67;;
21890;SDS011;11110;52.386;16.940;2023-02-28T07:01:16;35.80;;;13.90;;
21890;SDS011;11110;52.386;16.940;2023-02-28T07:03:46;44.90;;;15.60;;
21890;SDS011;11110;52.386;16.940;2023-02-28T07:06:19;36.77;;;14.27;;
21890;SDS011;11110;52.386;16.940;2023-02-28T07:08:49;40.57;;;15.37;;
21890;SDS011;11110;52.386;16.940;2023-02-28T07:11:19;45.53;;;15.83;;
21890;SDS011;11110;52.386;16.940;2023-02-28T07:13:49;30.57;;;13.87;;
21890;SDS011;11110;52.386;16.940;2023-02-28T07:16:19;39.97;;;14.60;;
21890;SDS011;11110;52.386;16.940;2023-02-28T07:18:48;48.43;;;15.13;;
21890;SDS011;11110;52.386;16.940;2023-02-28T07:21:17;46.33;;;16.70;;
21890;SDS011;11110;52.386;16.940;2023-02-28T07:23:46;36.37;;;15.53;;
21890;SDS011;11110;52.386;16.940;2023-02-28T07:26:15;41.03;;;16.47;;
21890;SDS011;11110;52.386;16.940;2023-02-28T07:28:46;43.17;;;15.93;;
21890;SDS011;11110;52.386;16.940;2023-02-28T07:31:16;56.37;;;17.93;;
21890;SDS011;11110;52.386;16.940;2023-02-28T07:33:47;41.60;;;15.20;;
21890;SDS011;11110;52.386;16.940;2023-02-28T07:36:16;32.17;;;14.60;;
21890;SDS011;11110;52.386;16.940;2023-02-28T07:38:46;38.17;;;15.27;;
21890;SDS011;11110;52.386;16.940;2023-02-28T07:41:18;39.87;;;14.90;;
21890;SDS011;11110;52.386;16.940;2023-02-28T07:43:48;32.77;;;14.17;;
21890;SDS011;11110;52.386;16.940;2023-02-28T07:46:18;34.07;;;14.53;;
21890;SDS011;11110;52.386;16.940;2023-02-28T07:48:49;37.17;;;15.53;;
21890;SDS011;11110;52.386;16.940;2023-02-28T07:51:18;33.47;;;14.50;;
21890;SDS011;11110;52.386;16.940;2023-02-28T07:53:47;43.80;;;17.40;;
21890;SDS011;11110;52.386;16.940;2023-02-28T07:56:16;40.60;;;16.20;;
21890;SDS011;11110;52.386;16.940;2023-02-28T07:58:45;41.33;;;17.13;;
21890;SDS011;11110;52.386;16.940;2023-02-28T08:01:13;45.53;;;16.97;;
21890;SDS011;11110;52.386;16.940;2023-02-28T08:03:42;37.67;;;15.07;;
21890;SDS011;11110;52.386;16.940;2023-02-28T08:06:16;40.40;;;17.20;;
21890;SDS011;11110;52.386;16.940;2023-02-28T08:08:46;45.77;;;17.63;;
21890;SDS011;11110;52.386;16.940;2023-02-28T08:11:15;39.60;;;16.93;;
21890;SDS011;11110;52.386;16.940;2023-02-28T08:13:45;43.50;;;16.77;;
21890;SDS011;11110;52.386;16.940;2023-02-28T08:16:14;39.37;;;17.10;;
21890;SDS011;11110;52.386;16.940;2023-02-28T08:18:48;43.13;;;16.70;;
21890;SDS011;11110;52.386;16.940;2023-02-28T08:21:19;37.97;;;17.60;;
21890;SDS011;11110;52.386;16.940;2023-02-28T08:23:48;39.83;;;16.73;;
21890;SDS011;11110;52.386;16.940;2023-02-28T08:26:18;50.67;;;18.70;;
21890;SDS011;11110;52.386;16.940;2023-02-28T08:28:46;44.47;;;17.57;;
21890;SDS011;11110;52.386;16.940;2023-02-28T08:31:15;47.57;;;19.07;;
21890;SDS011;11110;52.386;16.940;2023-02-28T08:33:44;52.00;;;18.30;;
21890;SDS011;11110;52.386;16.940;2023-02-28T08:36:15;45.83;;;18.63;;
21890;SDS011;11110;52.386;16.940;2023-02-28T08:38:45;44.73;;;19.03;;
21890;SDS011;11110;52.386;16.940;2023-02-28T08:41:14;44.43;;;18.23;;
21890;SDS011;11110;52.386;16.940;2023-02-28T08:43:43;49.60;;;19.67;;
21890;SDS011;11110;52.386;16.940;2023-02-28T08:46:12;47.70;;;20.33;;
21890;SDS011;11110;52.386;16.940;2023-02-28T08:48:42;46.43;;;18.27;;
21890;SDS011;11110;52.386;16.940;2023-02-28T08:51:11;50.13;;;19.40;;
21890;SDS011;11110;52.386;16.940;2023-02-28T08:53:43;50.13;;;21.40;;
21890;SDS011;11110;52.386;16.940;2023-02-28T08:56:14;50.30;;;20.23;;
21890;SDS011;11110;52.386;16.940;2023-02-28T08:58:44;42.37;;;17.40;;
21890;SDS011;11110;52.386;16.940;2023-02-28T09:01:14;49.87;;;18.70;;
21890;SDS011;11110;52.386;16.940;2023-02-28T09:03:45;37.73;;;16.67;;
21890;SDS011;11110;52.386;16.940;2023-02-28T09:06:15;45.53;;;18.10;;
21890;SDS011;11110;52.386;16.940;2023-02-28T09:08:45;44.17;;;18.30;;
21890;SDS011;11110;52.386;16.940;2023-02-28T09:11:16;42.37;;;17.13;;
21890;SDS011;11110;52.386;16.940;2023-02-28T09:13:45;42.83;;;17.80;;
21890;SDS011;11110;52.386;16.940;2023-02-28T09:16:14;36.70;;;16.83;;
21890;SDS011;11110;52.386;16.940;2023-02-28T09:18:44;47.63;;;18.13;;
21890;SDS011;11110;52.386;16.940;2023-02-28T09:21:15;51.90;;;19.40;;
21890;SDS011;11110;52.386;16.940;2023-02-28T09:23:45;42.10;;;17.77;;
21890;SDS011;11110;52.386;16.940;2023-02-28T09:26:17;43.93;;;17.33;;
21890;SDS011;11110;52.386;16.940;2023-02-28T09:28:47;39.63;;;17.40;;
21890;SDS011;11110;52.386;16.940;2023-02-28T09:31:17;43.90;;;16.30;;
21890;SDS011;11110;52.386;16.940;2023-02-28T09:33:48;38.53;;;15.90;;
21890;SDS011;11110;52.386;16.940;2023-02-28T09:36:17;37.87;;;16.87;;
21890;SDS011;11110;52.386;16.940;2023-02-28T09:38:47;40.00;;;15.77;;
21890;SDS011;11110;52.386;16.940;2023-02-28T09:41:20;41.93;;;16.43;;
21890;SDS011;11110;52.386;16.940;2023-02-28T09:43:52;37.00;;;15.60;;
21890;SDS011;11110;52.386;16.940;2023-02-28T09:46:31;35.77;;;14.17;;
21890;SDS011;11110;52.386;16.940;2023-02-28T09:49:04;38.23;;;14.20;;
21890;SDS011;11110;52.386;16.940;2023-02-28T09:51:37;35.30;;;14.40;;
21890;SDS011;11110;52.386;16.940;2023-02-28T09:54:13;38.40;;;15.23;;
21890;SDS011;11110;52.386;16.940;2023-02-28T09:56:48;37.27;;;14.00;;
21890;SDS011;11110;52.386;16.940;2023-02-28T10:02:32;36.93;;;14.00;;
21890;SDS011;11110;52.386;16.940;2023-02-28T10:05:15;43.17;;;14.57;;
21890;SDS011;11110;52.386;16.940;2023-02-28T10:07:50;36.90;;;13.80;;
21890;SDS011;11110;52.386;16.940;2023-02-28T10:10:33;38.30;;;13.03;;
21890;SDS011;11110;52.386;16.940;2023-02-28T10:13:11;32.67;;;13.27;;
21890;SDS011;11110;52.386;16.940;2023-02-28T10:15:48;44.13;;;15.47;;
21890;SDS011;11110;52.386;16.940;2023-02-28T10:18:21;32.83;;;12.87;;
21890;SDS011;11110;52.386;16.940;2023-02-28T10:20:53;39.07;;;13.27;;
21890;SDS011;11110;52.386;16.940;2023-02-28T10:23:25;31.53;;;10.60;;
21890;SDS011;11110;52.386;16.940;2023-02-28T10:25:57;30.03;;;11.50;;
21890;SDS011;11110;52.386;16.940;2023-02-28T10:28:29;39.67;;;11.90;;
21890;SDS011;11110;52.386;16.940;2023-02-28T10:30:58;36.33;;;10.97;;
21890;SDS011;11110;52.386;16.940;2023-02-28T10:33:28;27.50;;;9.67;;
21890;SDS011;11110;52.386;16.940;2023-02-28T10:35:59;30.27;;;9.07;;
21890;SDS011;11110;52.386;16.940;2023-02-28T10:38:31;32.67;;;9.57;;
21890;SDS011;11110;52.386;16.940;2023-02-28T10:41:05;31.50;;;9.13;;
21890;SDS011;11110;52.386;16.940;2023-02-28T10:43:36;51.73;;;13.27;;
21890;SDS011;11110;52.386;16.940;2023-02-28T10:46:10;43.43;;;12.10;;
21890;SDS011;11110;52.386;16.940;2023-02-28T10:48:43;25.07;;;9.57;;
21890;SDS011;11110;52.386;16.940;2023-02-28T10:51:17;33.03;;;9.20;;
21890;SDS011;11110;52.386;16.940;2023-02-28T10:53:48;32.50;;;10.60;;
21890;SDS011;11110;52.386;16.940;2023-02-28T10:56:27;30.50;;;9.70;;
21890;SDS011;11110;52.386;16.940;2023-02-28T10:59:00;33.20;;;10.23;;
21890;SDS011;11110;52.386;16.940;2023-02-28T11:01:37;27.23;;;9.10;;
21890;SDS011;11110;52.386;16.940;2023-02-28T11:04:16;34.50;;;9.93;;
21890;SDS011;11110;52.386;16.940;2023-02-28T11:06:51;35.80;;;11.60;;
21890;SDS011;11110;52.386;16.940;2023-02-28T11:09:27;35.03;;;11.27;;
21890;SDS011;11110;52.386;16.940;2023-02-28T11:11:58;34.17;;;10.57;;
21890;SDS011;11110;52.386;16.940;2023-02-28T11:14:29;36.30;;;11.67;;
21890;SDS011;11110;52.386;16.940;2023-02-28T11:17:03;32.17;;;11.10;;
21890;SDS011;11110;52.386;16.940;2023-02-28T11:19:44;39.97;;;13.30;;
21890;SDS011;11110;52.386;16.940;2023-02-28T11:22:17;38.33;;;10.93;;
21890;SDS011;11110;52.386;16.940;2023-02-28T11:24:49;31.40;;;10.67;;
21890;SDS011;11110;52.386;16.940;2023-02-28T11:33:23;33.40;;;11.03;;
21890;SDS011;11110;52.386;16.940;2023-02-28T11:35:57;47.17;;;13.40;;
21890;SDS011;11110;52.386;16.940;2023-02-28T11:38:28;28.70;;;10.77;;
21890;SDS011;11110;52.386;16.940;2023-02-28T11:41:05;33.90;;;12.37;;
21890;SDS011;11110;52.386;16.940;2023-02-28T11:43:54;26.47;;;10.80;;
21890;SDS011;11110;52.386;16.940;2023-02-28T11:46:41;39.80;;;13.07;;
21890;SDS011;11110;52.386;16.940;2023-02-28T11:49:17;35.87;;;13.43;;
21890;SDS011;11110;52.386;16.940;2023-02-28T11:51:59;45.20;;;13.83;;
21890;SDS011;11110;52.386;16.940;2023-02-28T11:54:34;28.03;;;11.47;;
21890;SDS011;11110;52.386;16.940;2023-02-28T11:57:20;36.23;;;11.97;;
21890;SDS011;11110;52.386;16.940;2023-02-28T12:00:03;25.63;;;11.30;;
21890;SDS011;11110;52.386;16.940;2023-02-28T12:02:44;36.47;;;13.73;;
21890;SDS011;11110;52.386;16.940;2023-02-28T12:05:28;31.17;;;10.93;;
21890;SDS011;11110;52.386;16.940;2023-02-28T12:08:06;32.37;;;12.00;;
21890;SDS011;11110;52.386;16.940;2023-02-28T12:10:44;34.40;;;12.83;;
21890;SDS011;11110;52.386;16.940;2023-02-28T12:13:26;33.67;;;11.23;;
21890;SDS011;11110;52.386;16.940;2023-02-28T12:16:04;28.07;;;10.83;;
21890;SDS011;11110;52.386;16.940;2023-02-28T12:19:06;28.40;;;11.00;;
21890;SDS011;11110;52.386;16.940;2023-02-28T12:21:52;33.97;;;10.97;;
21890;SDS011;11110;52.386;16.940;2023-02-28T12:24:44;30.23;;;10.83;;
21890;SDS011;11110;52.386;16.940;2023-02-28T12:27:22;27.90;;;10.03;;
21890;SDS011;11110;52.386;16.940;2023-02-28T12:29:56;34.37;;;10.90;;
21890;SDS011;11110;52.386;16.940;2023-02-28T12:32:30;30.73;;;10.50;;
21890;SDS011;11110;52.386;16.940;2023-02-28T12:35:04;26.23;;;9.87;;
21890;SDS011;11110;52.386;16.940;2023-02-28T12:37:40;31.83;;;10.77;;
21890;SDS011;11110;52.386;16.940;2023-02-28T12:40:14;39.80;;;12.20;;
21890;SDS011;11110;52.386;16.940;2023-02-28T12:42:47;32.47;;;9.83;;
21890;SDS011;11110;52.386;16.940;2023-02-28T12:45:20;36.47;;;11.47;;
21890;SDS011;11110;52.386;16.940;2023-02-28T12:47:52;28.63;;;9.97;;
21890;SDS011;11110;52.386;16.940;2023-02-28T12:50:29;30.00;;;10.00;;
21890;SDS011;11110;52.386;16.940;2023-02-28T12:52:59;27.70;;;9.53;;
21890;SDS011;11110;52.386;16.940;2023-02-28T12:55:33;30.77;;;9.90;;
21890;SDS011;11110;52.386;16.940;2023-02-28T12:58:10;34.63;;;10.77;;
21890;SDS011;11110;52.386;16.940;2023-02-28T13:00:48;23.13;;;8.70;;
21890;SDS011;11110;52.386;16.940;2023-02-28T13:03:33;25.40;;;9.93;;
21890;SDS011;11110;52.386;16.940;2023-02-28T13:06:31;20.77;;;8.80;;
21890;SDS011;11110;52.386;16.940;2023-02-28T13:09:16;26.47;;;9.13;;
21890;SDS011;11110;52.386;16.940;2023-02-28T13:11:46;21.67;;;6.87;;
21890;SDS011;11110;52.386;16.940;2023-02-28T13:14:22;23.60;;;7.70;;
21890;SDS011;11110;52.386;16.940;2023-02-28T13:16:57;24.07;;;7.57;;
21890;SDS011;11110;52.386;16.940;2023-02-28T13:19:31;26.40;;;7.53;;
21890;SDS011;11110;52.386;16.940;2023-02-28T13:22:03;20.60;;;7.30;;
21890;SDS011;11110;52.386;16.940;2023-02-28T13:27:22;25.17;;;7.57;;
21890;SDS011;11110;52.386;16.940;2023-02-28T13:29:52;29.00;;;8.07;;
21890;SDS011;11110;52.386;16.940;2023-02-28T13:38:25;27.57;;;7.57;;
21890;SDS011;11110;52.386;16.940;2023-02-28T13:44:09;26.07;;;7.37;;
21890;SDS011;11110;52.386;16.940;2023-02-28T13:49:40;22.10;;;7.27;;
21890;SDS011;11110;52.386;16.940;2023-02-28T13:52:11;19.10;;;6.57;;
21890;SDS011;11110;52.386;16.940;2023-02-28T13:54:56;21.73;;;6.90;;
21890;SDS011;11110;52.386;16.940;2023-02-28T13:57:42;21.60;;;7.30;;
21890;SDS011;11110;52.386;16.940;2023-02-28T14:00:23;24.63;;;7.50;;
21890;SDS011;11110;52.386;16.940;2023-02-28T14:03:09;22.50;;;7.07;;
21890;SDS011;11110;52.386;16.940;2023-02-28T14:08:53;20.90;;;6.77;;
21890;SDS011;11110;52.386;16.940;2023-02-28T14:11:28;23.70;;;7.60;;
21890;SDS011;11110;52.386;16.940;2023-02-28T14:13:59;23.70;;;6.47;;
21890;SDS011;11110;52.386;16.940;2023-02-28T14:16:35;25.80;;;8.13;;
21890;SDS011;11110;52.386;16.940;2023-02-28T14:19:10;34.43;;;9.10;;
21890;SDS011;11110;52.386;16.940;2023-02-28T14:21:49;26.60;;;7.47;;
21890;SDS011;11110;52.386;16.940;2023-02-28T14:24:34;27.17;;;7.77;;
21890;SDS011;11110;52.386;16.940;2023-02-28T14:27:26;27.23;;;8.13;;
21890;SDS011;11110;52.386;16.940;2023-02-28T14:30:03;29.73;;;7.80;;
21890;SDS011;11110;52.386;16.940;2023-02-28T14:32:59;25.73;;;6.67;;
21890;SDS011;11110;52.386;16.940;2023-02-28T14:35:40;26.20;;;7.13;;
21890;SDS011;11110;52.386;16.940;2023-02-28T14:38:19;31.90;;;7.60;;
21890;SDS011;11110;52.386;16.940;2023-02-28T14:40:52;20.33;;;6.03;;
21890;SDS011;11110;52.386;16.940;2023-02-28T14:43:25;19.93;;;6.03;;
21890;SDS011;11110;52.386;16.940;2023-02-28T14:45:55;22.73;;;5.87;;
21890;SDS011;11110;52.386;16.940;2023-02-28T14:48:26;22.83;;;6.10;;
21890;SDS011;11110;52.386;16.940;2023-02-28T14:50:56;21.97;;;6.90;;
21890;SDS011;11110;52.386;16.940;2023-02-28T14:53:28;25.70;;;6.93;;
21890;SDS011;11110;52.386;16.940;2023-02-28T14:56:02;25.43;;;7.77;;
21890;SDS011;11110;52.386;16.940;2023-02-28T14:58:34;25.00;;;7.60;;
21890;SDS011;11110;52.386;16.940;2023-02-28T15:01:03;20.50;;;7.00;;
21890;SDS011;11110;52.386;16.940;2023-02-28T15:03:32;24.77;;;7.23;;
21890;SDS011;11110;52.386;16.940;2023-02-28T15:06:02;25.50;;;7.93;;
21890;SDS011;11110;52.386;16.940;2023-02-28T15:08:33;18.50;;;6.93;;
21890;SDS011;11110;52.386;16.940;2023-02-28T15:11:04;22.30;;;7.23;;
21890;SDS011;11110;52.386;16.940;2023-02-28T15:13:38;21.63;;;7.27;;
21890;SDS011;11110;52.386;16.940;2023-02-28T15:16:09;15.37;;;6.60;;
21890;SDS011;11110;52.386;16.940;2023-02-28T15:18:43;22.57;;;7.53;;
21890;SDS011;11110;52.386;16.940;2023-02-28T15:21:15;18.23;;;6.03;;
21890;SDS011;11110;52.386;16.940;2023-02-28T15:23:48;25.27;;;8.67;;